sensor_id;sensor_type;location;lat;lon;timestamp;temperature;humidity
20416;DHT22;10367;52.202;5.996;2023-02-01T00:02:13;4.40;99.90
20416;DHT22;10367;52.202;5.996;2023-02-01T00:04:42;4.40;99.90
20416;DHT22;10367;52.202;5.996;2023-02-01T00:07:11;4.50;99.90
20416;DHT22;10367;52.202;5.996;2023-02-01T00:09:40;4.50;99.90
20416;DHT22;10367;52.202;5.996;2023-02-01T00:12:25;4.50;99.90
20416;DHT22;10367;52.202;5.996;2023-02-01T00:15:00;4.50;99.90
20416;DHT22;10367;52.202;5.996;2023-02-01T00:17:32;4.50;99.90
20416;DHT22;10367;52.202;5.996;2023-02-01T00:20:01;4.50;99.90
20416;DHT22;10367;52.202;5.996;2023-02-01T00:22:36;4.60;99.90
20416;DHT22;10367;52.202;5.996;2023-02-01T00:25:06;4.70;99.90
20416;DHT22;10367;52.202;5.996;2023-02-01T00:27:35;4.70;99.90
20416;DHT22;10367;52.202;5.996;2023-02-01T00:30:13;4.70;99.90
20416;DHT22;10367;52.202;5.996;2023-02-01T00:32:44;4.70;99.90
20416;DHT22;10367;52.202;5.996;2023-02-01T00:35:13;4.80;99.90
20416;DHT22;10367;52.202;5.996;2023-02-01T00:37:43;4.80;99.90
20416;DHT22;10367;52.202;5.996;2023-02-01T00:40:13;4.80;99.90
20416;DHT22;10367;52.202;5.996;2023-02-01T00:42:42;4.80;99.90
20416;DHT22;10367;52.202;5.996;2023-02-01T00:45:11;4.90;99.90
20416;DHT22;10367;52.202;5.996;2023-02-01T00:47:48;4.90;99.90
20416;DHT22;10367;52.202;5.996;2023-02-01T00:50:16;5.00;99.90
20416;DHT22;10367;52.202;5.996;2023-02-01T00:52:46;5.00;99.90
20416;DHT22;10367;52.202;5.996;2023-02-01T00:55:16;4.90;99.90
20416;DHT22;10367;52.202;5.996;2023-02-01T00:57:49;4.90;99.90
20416;DHT22;10367;52.202;5.996;2023-02-01T01:00:21;4.80;99.90
20416;DHT22;10367;52.202;5.996;2023-02-01T01:02:51;4.80;99.90
20416;DHT22;10367;52.202;5.996;2023-02-01T01:05:20;4.70;99.90
20416;DHT22;10367;52.202;5.996;2023-02-01T01:07:51;4.70;99.90
20416;DHT22;10367;52.202;5.996;2023-02-01T01:10:20;4.70;99.90
20416;DHT22;10367;52.202;5.996;2023-02-01T01:12:52;4.70;99.90
20416;DHT22;10367;52.202;5.996;2023-02-01T01:15:21;4.70;99.90
20416;DHT22;10367;52.202;5.996;2023-02-01T01:17:52;4.70;99.90
20416;DHT22;10367;52.202;5.996;2023-02-01T01:20:21;4.60;99.90
20416;DHT22;10367;52.202;5.996;2023-02-01T01:22:52;4.60;99.90
20416;DHT22;10367;52.202;5.996;2023-02-01T01:25:21;4.60;99.90
20416;DHT22;10367;52.202;5.996;2023-02-01T01:27:50;4.60;99.90
20416;DHT22;10367;52.202;5.996;2023-02-01T01:30:20;4.60;99.90
20416;DHT22;10367;52.202;5.996;2023-02-01T01:32:53;4.50;99.90
20416;DHT22;10367;52.202;5.996;2023-02-01T01:35:32;4.50;99.90
20416;DHT22;10367;52.202;5.996;2023-02-01T01:38:01;4.50;99.90
20416;DHT22;10367;52.202;5.996;2023-02-01T01:40:31;4.50;99.90
20416;DHT22;10367;52.202;5.996;2023-02-01T01:43:00;4.40;99.90
20416;DHT22;10367;52.202;5.996;2023-02-01T01:45:34;4.40;99.90
20416;DHT22;10367;52.202;5.996;2023-02-01T01:48:11;4.50;99.90
20416;DHT22;10367;52.202;5.996;2023-02-01T01:50:46;4.50;99.90
20416;DHT22;10367;52.202;5.996;2023-02-01T01:53:19;4.50;99.90
20416;DHT22;10367;52.202;5.996;2023-02-01T01:55:50;4.60;99.90
20416;DHT22;10367;52.202;5.996;2023-02-01T01:58:22;4.60;99.90
20416;DHT22;10367;52.202;5.996;2023-02-01T02:00:53;4.60;99.90
20416;DHT22;10367;52.202;5.996;2023-02-01T02:03:28;4.50;99.90
20416;DHT22;10367;52.202;5.996;2023-02-01T02:06:02;4.60;99.90
20416;DHT22;10367;52.202;5.996;2023-02-01T02:08:35;4.70;99.90
20416;DHT22;10367;52.202;5.996;2023-02-01T02:11:04;4.80;99.90
20416;DHT22;10367;52.202;5.996;2023-02-01T02:13:37;4.80;99.90
20416;DHT22;10367;52.202;5.996;2023-02-01T02:16:52;4.90;99.90
20416;DHT22;10367;52.202;5.996;2023-02-01T02:20:07;4.80;99.90
20416;DHT22;10367;52.202;5.996;2023-02-01T02:26:26;5.10;99.90
20416;DHT22;10367;52.202;5.996;2023-02-01T02:32:23;5.30;99.90
20416;DHT22;10367;52.202;5.996;2023-02-01T02:35:02;5.40;99.90
20416;DHT22;10367;52.202;5.996;2023-02-01T02:37:42;5.50;99.90
20416;DHT22;10367;52.202;5.996;2023-02-01T02:40:16;5.60;99.90
20416;DHT22;10367;52.202;5.996;2023-02-01T02:42:52;5.60;99.90
20416;DHT22;10367;52.202;5.996;2023-02-01T02:45:49;5.70;99.90
20416;DHT22;10367;52.202;5.996;2023-02-01T02:48:41;5.80;99.90
20416;DHT22;10367;52.202;5.996;2023-02-01T02:51:27;6.00;99.90
20416;DHT22;10367;52.202;5.996;2023-02-01T02:54:17;6.00;99.90
20416;DHT22;10367;52.202;5.996;2023-02-01T02:57:09;6.00;99.90
20416;DHT22;10367;52.202;5.996;2023-02-01T02:59:58;6.00;99.90
20416;DHT22;10367;52.202;5.996;2023-02-01T03:02:47;6.10;99.90
20416;DHT22;10367;52.202;5.996;2023-02-01T03:05:35;6.00;99.90
20416;DHT22;10367;52.202;5.996;2023-02-01T03:08:11;6.00;99.90
20416;DHT22;10367;52.202;5.996;2023-02-01T03:11:03;6.10;99.90
20416;DHT22;10367;52.202;5.996;2023-02-01T03:13:37;6.10;99.90
20416;DHT22;10367;52.202;5.996;2023-02-01T03:16:12;6.10;99.90
20416;DHT22;10367;52.202;5.996;2023-02-01T03:18:49;6.20;99.90
20416;DHT22;10367;52.202;5.996;2023-02-01T03:21:22;6.30;99.90
20416;DHT22;10367;52.202;5.996;2023-02-01T03:23:57;6.30;99.90
20416;DHT22;10367;52.202;5.996;2023-02-01T03:26:30;6.30;99.90
20416;DHT22;10367;52.202;5.996;2023-02-01T03:29:08;6.20;99.90
20416;DHT22;10367;52.202;5.996;2023-02-01T03:31:38;6.20;99.90
20416;DHT22;10367;52.202;5.996;2023-02-01T03:34:07;6.20;99.90
20416;DHT22;10367;52.202;5.996;2023-02-01T03:36:40;6.20;99.90
20416;DHT22;10367;52.202;5.996;2023-02-01T03:39:16;6.20;99.90
20416;DHT22;10367;52.202;5.996;2023-02-01T03:41:50;6.20;99.90
20416;DHT22;10367;52.202;5.996;2023-02-01T03:44:23;6.20;99.90
20416;DHT22;10367;52.202;5.996;2023-02-01T03:46:56;6.30;99.90
20416;DHT22;10367;52.202;5.996;2023-02-01T03:49:30;6.20;99.90
20416;DHT22;10367;52.202;5.996;2023-02-01T03:52:01;6.20;99.90
20416;DHT22;10367;52.202;5.996;2023-02-01T03:54:33;6.10;99.90
20416;DHT22;10367;52.202;5.996;2023-02-01T03:57:09;6.10;99.90
20416;DHT22;10367;52.202;5.996;2023-02-01T03:59:40;6.00;99.90
20416;DHT22;10367;52.202;5.996;2023-02-01T04:02:09;6.10;99.90
20416;DHT22;10367;52.202;5.996;2023-02-01T04:04:39;6.10;99.90
20416;DHT22;10367;52.202;5.996;2023-02-01T04:07:08;6.10;99.90
20416;DHT22;10367;52.202;5.996;2023-02-01T04:09:38;6.00;99.90
20416;DHT22;10367;52.202;5.996;2023-02-01T04:12:07;5.90;99.90
20416;DHT22;10367;52.202;5.996;2023-02-01T04:14:36;6.00;99.90
20416;DHT22;10367;52.202;5.996;2023-02-01T04:17:06;6.10;99.90
20416;DHT22;10367;52.202;5.996;2023-02-01T04:19:35;6.20;99.90
20416;DHT22;10367;52.202;5.996;2023-02-01T04:22:04;6.30;99.90
20416;DHT22;10367;52.202;5.996;2023-02-01T04:24:33;6.30;99.90
20416;DHT22;10367;52.202;5.996;2023-02-01T04:27:05;6.40;99.90
20416;DHT22;10367;52.202;5.996;2023-02-01T04:29:34;6.30;99.90
20416;DHT22;10367;52.202;5.996;2023-02-01T04:32:04;6.30;99.90
20416;DHT22;10367;52.202;5.996;2023-02-01T04:34:33;6.40;99.90
20416;DHT22;10367;52.202;5.996;2023-02-01T04:37:02;6.40;99.90
20416;DHT22;10367;52.202;5.996;2023-02-01T04:39:31;6.40;99.90
20416;DHT22;10367;52.202;5.996;2023-02-01T04:42:00;6.50;99.90
20416;DHT22;10367;52.202;5.996;2023-02-01T04:44:32;6.50;99.90
20416;DHT22;10367;52.202;5.996;2023-02-01T04:47:01;6.50;99.90
20416;DHT22;10367;52.202;5.996;2023-02-01T04:49:30;6.60;99.90
20416;DHT22;10367;52.202;5.996;2023-02-01T04:51:59;6.60;99.90
20416;DHT22;10367;52.202;5.996;2023-02-01T04:54:28;6.60;99.90
20416;DHT22;10367;52.202;5.996;2023-02-01T04:57:01;6.60;99.90
20416;DHT22;10367;52.202;5.996;2023-02-01T04:59:31;6.60;99.90
20416;DHT22;10367;52.202;5.996;2023-02-01T05:02:00;6.60;99.90
20416;DHT22;10367;52.202;5.996;2023-02-01T05:04:29;6.60;99.90
20416;DHT22;10367;52.202;5.996;2023-02-01T05:07:00;6.50;99.90
20416;DHT22;10367;52.202;5.996;2023-02-01T05:09:29;6.50;99.90
20416;DHT22;10367;52.202;5.996;2023-02-01T05:11:58;6.40;99.90
20416;DHT22;10367;52.202;5.996;2023-02-01T05:14:46;6.40;99.90
20416;DHT22;10367;52.202;5.996;2023-02-01T05:17:17;6.40;99.90
20416;DHT22;10367;52.202;5.996;2023-02-01T05:19:46;6.40;99.90
20416;DHT22;10367;52.202;5.996;2023-02-01T05:22:15;6.40;99.90
20416;DHT22;10367;52.202;5.996;2023-02-01T05:24:44;6.30;99.90
20416;DHT22;10367;52.202;5.996;2023-02-01T05:27:13;6.30;99.90
20416;DHT22;10367;52.202;5.996;2023-02-01T05:29:42;6.40;99.90
20416;DHT22;10367;52.202;5.996;2023-02-01T05:32:12;6.50;99.90
20416;DHT22;10367;52.202;5.996;2023-02-01T05:34:49;6.50;99.90
20416;DHT22;10367;52.202;5.996;2023-02-01T05:37:18;6.40;99.90
20416;DHT22;10367;52.202;5.996;2023-02-01T05:39:48;6.40;99.90
20416;DHT22;10367;52.202;5.996;2023-02-01T05:42:17;6.40;99.90
20416;DHT22;10367;52.202;5.996;2023-02-01T05:44:45;6.50;99.90
20416;DHT22;10367;52.202;5.996;2023-02-01T05:47:18;6.50;99.90
20416;DHT22;10367;52.202;5.996;2023-02-01T05:49:48;6.50;99.90
20416;DHT22;10367;52.202;5.996;2023-02-01T05:52:17;6.40;99.90
20416;DHT22;10367;52.202;5.996;2023-02-01T05:54:46;6.50;99.90
20416;DHT22;10367;52.202;5.996;2023-02-01T05:57:15;6.50;99.90
20416;DHT22;10367;52.202;5.996;2023-02-01T05:59:44;6.60;99.90
20416;DHT22;10367;52.202;5.996;2023-02-01T06:02:15;6.50;99.90
20416;DHT22;10367;52.202;5.996;2023-02-01T06:04:49;6.50;99.90
20416;DHT22;10367;52.202;5.996;2023-02-01T06:07:23;6.50;99.90
20416;DHT22;10367;52.202;5.996;2023-02-01T06:09:56;6.50;99.90
20416;DHT22;10367;52.202;5.996;2023-02-01T06:12:27;6.60;99.90
20416;DHT22;10367;52.202;5.996;2023-02-01T06:14:59;6.60;99.90
20416;DHT22;10367;52.202;5.996;2023-02-01T06:17:31;6.50;99.90
20416;DHT22;10367;52.202;5.996;2023-02-01T06:20:02;6.50;99.90
20416;DHT22;10367;52.202;5.996;2023-02-01T06:22:31;6.50;99.90
20416;DHT22;10367;52.202;5.996;2023-02-01T06:25:07;6.50;99.90
20416;DHT22;10367;52.202;5.996;2023-02-01T06:27:37;6.50;99.90
20416;DHT22;10367;52.202;5.996;2023-02-01T06:30:07;6.50;99.90
20416;DHT22;10367;52.202;5.996;2023-02-01T06:32:36;6.50;99.90
20416;DHT22;10367;52.202;5.996;2023-02-01T06:35:19;6.40;99.90
20416;DHT22;10367;52.202;5.996;2023-02-01T06:37:48;6.30;99.90
20416;DHT22;10367;52.202;5.996;2023-02-01T06:40:17;6.20;99.90
20416;DHT22;10367;52.202;5.996;2023-02-01T06:42:49;6.20;99.90
20416;DHT22;10367;52.202;5.996;2023-02-01T06:45:19;6.10;99.90
20416;DHT22;10367;52.202;5.996;2023-02-01T06:47:48;6.00;99.90
20416;DHT22;10367;52.202;5.996;2023-02-01T06:50:19;5.90;99.90
20416;DHT22;10367;52.202;5.996;2023-02-01T06:52:48;5.80;99.90
20416;DHT22;10367;52.202;5.996;2023-02-01T06:55:17;5.80;99.90
20416;DHT22;10367;52.202;5.996;2023-02-01T06:57:46;5.80;99.90
20416;DHT22;10367;52.202;5.996;2023-02-01T07:00:16;6.00;99.90
20416;DHT22;10367;52.202;5.996;2023-02-01T07:02:56;6.00;99.90
20416;DHT22;10367;52.202;5.996;2023-02-01T07:05:31;6.00;99.90
20416;DHT22;10367;52.202;5.996;2023-02-01T07:08:00;5.90;99.90
20416;DHT22;10367;52.202;5.996;2023-02-01T07:10:34;5.90;99.90
20416;DHT22;10367;52.202;5.996;2023-02-01T07:13:03;6.00;99.90
20416;DHT22;10367;52.202;5.996;2023-02-01T07:15:32;6.10;99.90
20416;DHT22;10367;52.202;5.996;2023-02-01T07:18:01;6.10;99.90
20416;DHT22;10367;52.202;5.996;2023-02-01T07:20:31;6.00;99.90
20416;DHT22;10367;52.202;5.996;2023-02-01T07:23:00;6.10;99.90
20416;DHT22;10367;52.202;5.996;2023-02-01T07:25:29;6.10;99.90
20416;DHT22;10367;52.202;5.996;2023-02-01T07:28:01;6.20;99.90
20416;DHT22;10367;52.202;5.996;2023-02-01T07:30:30;6.20;99.90
20416;DHT22;10367;52.202;5.996;2023-02-01T07:32:59;6.10;99.90
20416;DHT22;10367;52.202;5.996;2023-02-01T07:35:28;6.10;99.90
20416;DHT22;10367;52.202;5.996;2023-02-01T07:38:06;6.10;99.90
20416;DHT22;10367;52.202;5.996;2023-02-01T07:40:35;6.20;99.90
20416;DHT22;10367;52.202;5.996;2023-02-01T07:43:04;6.20;99.90
20416;DHT22;10367;52.202;5.996;2023-02-01T07:45:41;6.20;99.90
20416;DHT22;10367;52.202;5.996;2023-02-01T07:48:10;6.30;99.90
20416;DHT22;10367;52.202;5.996;2023-02-01T07:50:39;6.20;99.90
20416;DHT22;10367;52.202;5.996;2023-02-01T07:53:09;6.30;99.90
20416;DHT22;10367;52.202;5.996;2023-02-01T07:55:38;6.30;99.90
20416;DHT22;10367;52.202;5.996;2023-02-01T07:58:07;6.30;99.90
20416;DHT22;10367;52.202;5.996;2023-02-01T08:01:10;6.30;99.90
20416;DHT22;10367;52.202;5.996;2023-02-01T08:03:50;6.30;99.90
20416;DHT22;10367;52.202;5.996;2023-02-01T08:06:19;6.40;99.90
20416;DHT22;10367;52.202;5.996;2023-02-01T08:08:49;6.30;99.90
20416;DHT22;10367;52.202;5.996;2023-02-01T08:11:19;6.30;99.90
20416;DHT22;10367;52.202;5.996;2023-02-01T08:13:49;6.20;99.90
20416;DHT22;10367;52.202;5.996;2023-02-01T08:16:20;6.20;99.90
20416;DHT22;10367;52.202;5.996;2023-02-01T08:18:49;6.20;99.90
20416;DHT22;10367;52.202;5.996;2023-02-01T08:21:19;6.30;99.90
20416;DHT22;10367;52.202;5.996;2023-02-01T08:23:49;6.40;99.90
20416;DHT22;10367;52.202;5.996;2023-02-01T08:26:19;6.40;99.90
20416;DHT22;10367;52.202;5.996;2023-02-01T08:28:50;6.50;99.90
20416;DHT22;10367;52.202;5.996;2023-02-01T08:31:22;6.50;99.90
20416;DHT22;10367;52.202;5.996;2023-02-01T08:33:52;6.60;99.90
20416;DHT22;10367;52.202;5.996;2023-02-01T08:36:22;6.70;99.90
20416;DHT22;10367;52.202;5.996;2023-02-01T08:38:51;6.70;99.90
20416;DHT22;10367;52.202;5.996;2023-02-01T08:41:21;6.70;99.90
20416;DHT22;10367;52.202;5.996;2023-02-01T08:43:51;6.80;99.90
20416;DHT22;10367;52.202;5.996;2023-02-01T08:46:23;6.80;99.90
20416;DHT22;10367;52.202;5.996;2023-02-01T08:48:52;6.90;99.90
20416;DHT22;10367;52.202;5.996;2023-02-01T08:51:22;6.90;99.90
20416;DHT22;10367;52.202;5.996;2023-02-01T08:53:51;6.90;99.90
20416;DHT22;10367;52.202;5.996;2023-02-01T08:56:20;6.90;99.90
20416;DHT22;10367;52.202;5.996;2023-02-01T08:58:49;6.90;99.90
20416;DHT22;10367;52.202;5.996;2023-02-01T09:01:18;7.00;99.90
20416;DHT22;10367;52.202;5.996;2023-02-01T09:03:48;7.00;99.90
20416;DHT22;10367;52.202;5.996;2023-02-01T09:06:17;7.10;99.90
20416;DHT22;10367;52.202;5.996;2023-02-01T09:08:45;7.20;99.90
20416;DHT22;10367;52.202;5.996;2023-02-01T09:11:16;7.30;99.90
20416;DHT22;10367;52.202;5.996;2023-02-01T09:13:45;7.30;99.90
20416;DHT22;10367;52.202;5.996;2023-02-01T09:16:14;7.30;99.90
20416;DHT22;10367;52.202;5.996;2023-02-01T09:18:43;7.40;99.90
20416;DHT22;10367;52.202;5.996;2023-02-01T09:21:33;7.40;99.90
20416;DHT22;10367;52.202;5.996;2023-02-01T09:24:02;7.50;99.90
20416;DHT22;10367;52.202;5.996;2023-02-01T09:26:31;7.60;99.90
20416;DHT22;10367;52.202;5.996;2023-02-01T09:29:00;7.60;99.90
20416;DHT22;10367;52.202;5.996;2023-02-01T09:31:29;7.70;99.90
20416;DHT22;10367;52.202;5.996;2023-02-01T09:33:58;7.70;99.90
20416;DHT22;10367;52.202;5.996;2023-02-01T09:36:27;7.70;99.90
20416;DHT22;10367;52.202;5.996;2023-02-01T09:38:59;7.70;99.90
20416;DHT22;10367;52.202;5.996;2023-02-01T09:41:46;7.60;99.90
20416;DHT22;10367;52.202;5.996;2023-02-01T09:44:26;7.60;99.90
20416;DHT22;10367;52.202;5.996;2023-02-01T09:47:11;7.60;99.90
20416;DHT22;10367;52.202;5.996;2023-02-01T09:49:48;7.50;99.90
20416;DHT22;10367;52.202;5.996;2023-02-01T09:52:24;7.50;99.90
20416;DHT22;10367;52.202;5.996;2023-02-01T09:54:59;7.50;99.90
20416;DHT22;10367;52.202;5.996;2023-02-01T09:57:40;7.50;99.90
20416;DHT22;10367;52.202;5.996;2023-02-01T10:00:16;7.40;99.90
20416;DHT22;10367;52.202;5.996;2023-02-01T10:02:46;7.40;99.90
20416;DHT22;10367;52.202;5.996;2023-02-01T10:05:21;7.40;99.90
20416;DHT22;10367;52.202;5.996;2023-02-01T10:07:59;7.40;99.90
20416;DHT22;10367;52.202;5.996;2023-02-01T10:10:35;7.40;99.90
20416;DHT22;10367;52.202;5.996;2023-02-01T10:13:31;7.40;99.90
20416;DHT22;10367;52.202;5.996;2023-02-01T10:16:16;7.40;99.90
20416;DHT22;10367;52.202;5.996;2023-02-01T10:19:00;7.40;99.90
20416;DHT22;10367;52.202;5.996;2023-02-01T10:21:40;7.30;99.90
20416;DHT22;10367;52.202;5.996;2023-02-01T10:24:42;7.20;99.90
20416;DHT22;10367;52.202;5.996;2023-02-01T10:27:18;7.10;99.90
20416;DHT22;10367;52.202;5.996;2023-02-01T10:29:51;6.90;99.90
20416;DHT22;10367;52.202;5.996;2023-02-01T10:32:23;6.80;99.90
20416;DHT22;10367;52.202;5.996;2023-02-01T10:34:57;6.80;99.90
20416;DHT22;10367;52.202;5.996;2023-02-01T10:37:31;6.80;99.90
20416;DHT22;10367;52.202;5.996;2023-02-01T10:40:02;6.70;99.90
20416;DHT22;10367;52.202;5.996;2023-02-01T10:42:39;6.70;99.90
20416;DHT22;10367;52.202;5.996;2023-02-01T10:45:14;6.60;99.90
20416;DHT22;10367;52.202;5.996;2023-02-01T10:47:43;6.60;99.90
20416;DHT22;10367;52.202;5.996;2023-02-01T10:50:22;6.50;99.90
20416;DHT22;10367;52.202;5.996;2023-02-01T10:52:57;6.50;99.90
20416;DHT22;10367;52.202;5.996;2023-02-01T10:55:37;6.40;99.90
20416;DHT22;10367;52.202;5.996;2023-02-01T10:58:19;6.40;99.90
20416;DHT22;10367;52.202;5.996;2023-02-01T11:00:53;6.40;99.90
20416;DHT22;10367;52.202;5.996;2023-02-01T11:03:39;6.40;99.90
20416;DHT22;10367;52.202;5.996;2023-02-01T11:06:19;6.40;99.90
20416;DHT22;10367;52.202;5.996;2023-02-01T11:08:51;6.40;99.90
20416;DHT22;10367;52.202;5.996;2023-02-01T11:11:21;6.50;99.90
20416;DHT22;10367;52.202;5.996;2023-02-01T11:13:59;6.50;99.90
20416;DHT22;10367;52.202;5.996;2023-02-01T11:16:32;6.60;99.90
20416;DHT22;10367;52.202;5.996;2023-02-01T11:19:02;6.60;99.90
20416;DHT22;10367;52.202;5.996;2023-02-01T11:21:31;6.60;99.90
20416;DHT22;10367;52.202;5.996;2023-02-01T11:24:01;6.60;99.90
20416;DHT22;10367;52.202;5.996;2023-02-01T11:26:31;6.60;99.90
20416;DHT22;10367;52.202;5.996;2023-02-01T11:29:04;6.70;99.90
20416;DHT22;10367;52.202;5.996;2023-02-01T11:31:34;6.80;99.90
20416;DHT22;10367;52.202;5.996;2023-02-01T11:34:08;6.80;99.90
20416;DHT22;10367;52.202;5.996;2023-02-01T11:36:40;6.80;99.90
20416;DHT22;10367;52.202;5.996;2023-02-01T11:39:23;6.80;99.90
20416;DHT22;10367;52.202;5.996;2023-02-01T11:41:59;6.90;99.90
20416;DHT22;10367;52.202;5.996;2023-02-01T11:44:35;6.90;99.90
20416;DHT22;10367;52.202;5.996;2023-02-01T11:47:25;7.00;99.90
20416;DHT22;10367;52.202;5.996;2023-02-01T11:49:56;7.00;99.90
20416;DHT22;10367;52.202;5.996;2023-02-01T11:52:45;7.20;99.90
20416;DHT22;10367;52.202;5.996;2023-02-01T11:55:31;7.40;99.90
20416;DHT22;10367;52.202;5.996;2023-02-01T11:58:12;7.50;99.90
20416;DHT22;10367;52.202;5.996;2023-02-01T12:00:59;7.70;99.90
20416;DHT22;10367;52.202;5.996;2023-02-01T12:06:42;7.80;99.90
20416;DHT22;10367;52.202;5.996;2023-02-01T12:09:28;7.80;99.90
20416;DHT22;10367;52.202;5.996;2023-02-01T12:12:07;7.80;99.90
20416;DHT22;10367;52.202;5.996;2023-02-01T12:14:47;7.80;99.90
20416;DHT22;10367;52.202;5.996;2023-02-01T12:17:40;7.80;99.90
20416;DHT22;10367;52.202;5.996;2023-02-01T12:20:32;7.80;99.90
20416;DHT22;10367;52.202;5.996;2023-02-01T12:23:14;7.80;99.90
20416;DHT22;10367;52.202;5.996;2023-02-01T12:26:00;7.80;99.90
20416;DHT22;10367;52.202;5.996;2023-02-01T12:28:48;7.80;99.90
20416;DHT22;10367;52.202;5.996;2023-02-01T12:31:31;7.80;99.90
20416;DHT22;10367;52.202;5.996;2023-02-01T12:34:26;7.80;99.90
20416;DHT22;10367;52.202;5.996;2023-02-01T12:37:05;7.80;99.90
20416;DHT22;10367;52.202;5.996;2023-02-01T12:39:39;7.90;99.90
20416;DHT22;10367;52.202;5.996;2023-02-01T12:42:14;7.90;99.90
20416;DHT22;10367;52.202;5.996;2023-02-01T12:44:49;7.90;99.90
20416;DHT22;10367;52.202;5.996;2023-02-01T12:47:23;8.00;99.90
20416;DHT22;10367;52.202;5.996;2023-02-01T12:49:58;8.10;99.90
20416;DHT22;10367;52.202;5.996;2023-02-01T12:52:34;8.10;99.90
20416;DHT22;10367;52.202;5.996;2023-02-01T12:55:10;8.10;99.90
20416;DHT22;10367;52.202;5.996;2023-02-01T12:57:47;8.10;99.90
20416;DHT22;10367;52.202;5.996;2023-02-01T13:00:23;8.00;99.90
20416;DHT22;10367;52.202;5.996;2023-02-01T13:03:01;7.90;99.90
20416;DHT22;10367;52.202;5.996;2023-02-01T13:05:37;7.70;99.90
20416;DHT22;10367;52.202;5.996;2023-02-01T13:08:12;7.70;99.90
20416;DHT22;10367;52.202;5.996;2023-02-01T13:10:47;7.70;99.90
20416;DHT22;10367;52.202;5.996;2023-02-01T13:13:20;7.60;99.90
20416;DHT22;10367;52.202;5.996;2023-02-01T13:15:55;7.60;99.90
20416;DHT22;10367;52.202;5.996;2023-02-01T13:18:35;7.60;99.90
20416;DHT22;10367;52.202;5.996;2023-02-01T13:21:10;7.50;99.90
20416;DHT22;10367;52.202;5.996;2023-02-01T13:23:42;7.50;99.90
20416;DHT22;10367;52.202;5.996;2023-02-01T13:26:12;7.30;99.90
20416;DHT22;10367;52.202;5.996;2023-02-01T13:28:44;7.20;99.90
20416;DHT22;10367;52.202;5.996;2023-02-01T13:31:43;7.10;99.90
20416;DHT22;10367;52.202;5.996;2023-02-01T13:37:44;7.00;99.90
20416;DHT22;10367;52.202;5.996;2023-02-01T13:40:26;7.10;99.90
20416;DHT22;10367;52.202;5.996;2023-02-01T13:43:01;7.10;99.90
20416;DHT22;10367;52.202;5.996;2023-02-01T13:45:33;7.10;99.90
20416;DHT22;10367;52.202;5.996;2023-02-01T13:48:04;7.20;99.90
20416;DHT22;10367;52.202;5.996;2023-02-01T13:50:36;7.30;99.90
20416;DHT22;10367;52.202;5.996;2023-02-01T13:53:17;7.20;99.90
20416;DHT22;10367;52.202;5.996;2023-02-01T13:55:55;7.20;99.90
20416;DHT22;10367;52.202;5.996;2023-02-01T13:58:31;7.20;99.90
20416;DHT22;10367;52.202;5.996;2023-02-01T14:01:32;7.30;99.90
20416;DHT22;10367;52.202;5.996;2023-02-01T14:04:03;7.40;99.90
20416;DHT22;10367;52.202;5.996;2023-02-01T14:06:45;7.40;99.90
20416;DHT22;10367;52.202;5.996;2023-02-01T14:09:34;7.50;99.90
20416;DHT22;10367;52.202;5.996;2023-02-01T14:12:44;7.50;99.90
20416;DHT22;10367;52.202;5.996;2023-02-01T14:15:22;7.60;99.90
20416;DHT22;10367;52.202;5.996;2023-02-01T14:17:52;7.50;99.90
20416;DHT22;10367;52.202;5.996;2023-02-01T14:20:48;7.50;99.90
20416;DHT22;10367;52.202;5.996;2023-02-01T14:23:24;7.50;99.90
20416;DHT22;10367;52.202;5.996;2023-02-01T14:26:11;7.50;99.90
20416;DHT22;10367;52.202;5.996;2023-02-01T14:28:49;7.60;99.90
20416;DHT22;10367;52.202;5.996;2023-02-01T14:31:41;7.50;99.90
20416;DHT22;10367;52.202;5.996;2023-02-01T14:34:16;7.50;99.90
20416;DHT22;10367;52.202;5.996;2023-02-01T14:36:51;7.40;99.90
20416;DHT22;10367;52.202;5.996;2023-02-01T14:39:28;7.50;99.90
20416;DHT22;10367;52.202;5.996;2023-02-01T14:42:01;7.60;99.90
20416;DHT22;10367;52.202;5.996;2023-02-01T14:44:35;7.60;99.90
20416;DHT22;10367;52.202;5.996;2023-02-01T14:47:32;7.50;99.90
20416;DHT22;10367;52.202;5.996;2023-02-01T14:50:15;7.60;99.90
20416;DHT22;10367;52.202;5.996;2023-02-01T14:52:47;7.70;99.90
20416;DHT22;10367;52.202;5.996;2023-02-01T14:55:21;7.70;99.90
20416;DHT22;10367;52.202;5.996;2023-02-01T14:57:56;7.70;99.90
20416;DHT22;10367;52.202;5.996;2023-02-01T15:00:28;7.60;99.90
20416;DHT22;10367;52.202;5.996;2023-02-01T15:03:19;7.60;99.90
20416;DHT22;10367;52.202;5.996;2023-02-01T15:05:55;7.60;99.90
20416;DHT22;10367;52.202;5.996;2023-02-01T15:08:26;7.60;99.90
20416;DHT22;10367;52.202;5.996;2023-02-01T15:10:58;7.60;99.90
20416;DHT22;10367;52.202;5.996;2023-02-01T15:13:30;7.70;99.90
20416;DHT22;10367;52.202;5.996;2023-02-01T15:16:00;7.70;99.90
20416;DHT22;10367;52.202;5.996;2023-02-01T15:18:30;7.70;99.90
20416;DHT22;10367;52.202;5.996;2023-02-01T15:21:00;7.70;99.90
20416;DHT22;10367;52.202;5.996;2023-02-01T15:23:36;7.70;99.90
20416;DHT22;10367;52.202;5.996;2023-02-01T15:26:05;7.60;99.90
20416;DHT22;10367;52.202;5.996;2023-02-01T15:28:35;7.40;99.90
20416;DHT22;10367;52.202;5.996;2023-02-01T15:31:05;7.20;99.90
20416;DHT22;10367;52.202;5.996;2023-02-01T15:33:34;7.00;99.90
20416;DHT22;10367;52.202;5.996;2023-02-01T15:36:10;6.80;99.90
20416;DHT22;10367;52.202;5.996;2023-02-01T15:38:40;6.70;99.90
20416;DHT22;10367;52.202;5.996;2023-02-01T15:41:13;6.30;99.90
20416;DHT22;10367;52.202;5.996;2023-02-01T15:43:49;6.10;99.90
20416;DHT22;10367;52.202;5.996;2023-02-01T15:46:32;5.80;99.90
20416;DHT22;10367;52.202;5.996;2023-02-01T15:49:03;5.60;99.90
20416;DHT22;10367;52.202;5.996;2023-02-01T15:51:33;5.50;99.90
20416;DHT22;10367;52.202;5.996;2023-02-01T15:54:04;5.40;99.90
20416;DHT22;10367;52.202;5.996;2023-02-01T15:56:38;5.30;99.90
20416;DHT22;10367;52.202;5.996;2023-02-01T15:59:15;5.40;99.90
20416;DHT22;10367;52.202;5.996;2023-02-01T16:01:45;5.30;99.90
20416;DHT22;10367;52.202;5.996;2023-02-01T16:04:17;5.30;99.90
20416;DHT22;10367;52.202;5.996;2023-02-01T16:06:49;5.30;99.90
20416;DHT22;10367;52.202;5.996;2023-02-01T16:09:21;5.40;99.90
20416;DHT22;10367;52.202;5.996;2023-02-01T16:11:56;5.40;99.90
20416;DHT22;10367;52.202;5.996;2023-02-01T16:14:27;5.40;99.90
20416;DHT22;10367;52.202;5.996;2023-02-01T16:16:57;5.40;99.90
20416;DHT22;10367;52.202;5.996;2023-02-01T16:19:26;5.40;99.90
20416;DHT22;10367;52.202;5.996;2023-02-01T16:21:56;5.30;99.90
20416;DHT22;10367;52.202;5.996;2023-02-01T16:24:26;5.30;99.90
20416;DHT22;10367;52.202;5.996;2023-02-01T16:26:55;5.30;99.90
20416;DHT22;10367;52.202;5.996;2023-02-01T16:29:24;5.40;99.90
20416;DHT22;10367;52.202;5.996;2023-02-01T16:31:54;5.40;99.90
20416;DHT22;10367;52.202;5.996;2023-02-01T16:34:23;5.30;99.90
20416;DHT22;10367;52.202;5.996;2023-02-01T16:36:52;5.20;99.90
20416;DHT22;10367;52.202;5.996;2023-02-01T16:39:24;5.30;99.90
20416;DHT22;10367;52.202;5.996;2023-02-01T16:41:55;5.40;99.90
20416;DHT22;10367;52.202;5.996;2023-02-01T16:44:27;5.60;99.90